Time;durP1;ratioP1;P1;durP2;ratioP2;P2;SDS_P1;SDS_P2;PMS_P1;PMS_P2;Temp;Humidity;BMP_temperature;BMP_pressure;BME280_temperature;BME280_humidity;BME280_pressure;Samples;Min_cycle;Max_cycle;Signal;HPM_P1;HPM_P2
2022/06/18 00:01:33;;;;;;;9.18;5.93;;;;;;;12.95;75.87;99675.69;4928428;29;20047;-83
2022/06/18 00:04:04;;;;;;;7.90;6.38;;;;;;;13.05;75.62;99692.03;4914680;29;20049;-80
2022/06/18 00:06:34;;;;;;;10.13;6.20;;;;;;;13.06;75.61;99692.91;4925503;29;20432;-81
2022/06/18 00:09:00;;;;;;;8.73;6.57;;;;;;;13.06;75.34;99703.38;4933353;29;20048;-79
2022/06/18 00:14:13;;;;;;;14.27;7.55;;;;;;;12.98;75.70;99711.38;4931303;29;20110;-80
2022/06/18 00:16:39;;;;;;;12.73;7.18;;;;;;;13.09;75.47;99729.44;4926470;29;20475;-80
2022/06/18 00:19:05;;;;;;;9.65;6.82;;;;;;;12.90;75.41;99703.69;4925780;29;20127;-80
2022/06/18 00:21:31;;;;;;;11.50;7.22;;;;;;;12.92;75.45;99720.16;4924663;29;20043;-81
2022/06/18 00:23:57;;;;;;;10.32;6.45;;;;;;;12.90;75.35;99727.19;4925549;29;20043;-82
2022/06/18 00:26:23;;;;;;;10.10;6.88;;;;;;;12.70;75.68;99705.81;4925841;29;20036;-81
2022/06/18 00:28:49;;;;;;;11.10;6.13;;;;;;;12.69;75.69;99714.56;4934859;29;20078;-79
2022/06/18 00:31:16;;;;;;;9.23;6.80;;;;;;;12.49;75.57;99689.66;4933558;29;20047;-79
2022/06/18 00:33:42;;;;;;;13.00;7.25;;;;;;;12.65;75.13;99719.81;4929532;29;20518;-80
2022/06/18 00:36:18;;;;;;;12.00;7.03;;;;;;;12.62;75.48;99719.88;4926848;29;20139;-80
2022/06/18 00:38:47;;;;;;;11.98;7.18;;;;;;;12.57;75.53;99719.09;4909797;29;20090;-80
2022/06/18 00:41:20;;;;;;;13.90;7.40;;;;;;;12.51;75.29;99724.41;4924442;29;20126;-81
2022/06/18 00:43:53;;;;;;;12.07;7.07;;;;;;;12.51;75.64;99734.84;4909869;29;20056;-80
2022/06/18 00:46:32;;;;;;;11.23;7.25;;;;;;;12.32;75.44;99711.69;4924672;29;20071;-83
2022/06/18 00:49:14;;;;;;;12.73;7.40;;;;;;;12.42;75.76;99732.44;4941187;29;20051;-80
2022/06/18 00:51:57;;;;;;;12.95;7.50;;;;;;;12.35;75.64;99736.91;4925996;29;20404;-82
2022/06/18 00:54:30;;;;;;;10.82;7.78;;;;;;;12.13;75.38;99711.19;4928707;29;20048;-81
2022/06/18 00:57:17;;;;;;;11.73;7.55;;;;;;;12.21;75.14;99737.13;4923341;29;20074;-79
2022/06/18 00:59:53;;;;;;;15.50;6.97;;;;;;;12.16;75.24;99731.13;4927589;29;20130;-82
2022/06/18 01:02:28;;;;;;;12.15;7.47;;;;;;;11.82;75.65;99687.28;4923424;29;20048;-80
2022/06/18 01:04:54;;;;;;;12.75;7.18;;;;;;;12.04;75.49;99727.81;4939362;29;20051;-79
2022/06/18 01:07:37;;;;;;;15.15;7.55;;;;;;;12.13;75.68;99755.53;4933806;29;20051;-79
2022/06/18 01:10:13;;;;;;;16.10;7.68;;;;;;;12.18;75.35;99760.66;4924041;29;20056;-80
2022/06/18 01:12:40;;;;;;;15.85;7.45;;;;;;;12.16;75.71;99767.63;4929021;29;20519;-82
2022/06/18 01:15:09;;;;;;;16.90;7.15;;;;;;;12.17;75.76;99775.44;4914633;29;20059;-82
2022/06/18 01:17:40;;;;;;;13.93;7.22;;;;;;;12.11;75.77;99759.00;4941650;29;20760;-78
2022/06/18 01:20:10;;;;;;;16.27;7.10;;;;;;;12.26;75.72;99773.56;4931371;29;20071;-81
2022/06/18 01:23:11;;;;;;;10.95;6.68;;;;;;;12.29;75.73;99774.38;4921292;29;20067;-81
2022/06/18 01:25:38;;;;;;;13.15;7.65;;;;;;;12.13;76.10;99747.69;4917857;29;20039;-79
2022/06/18 01:28:09;;;;;;;12.55;6.95;;;;;;;12.35;76.00;99778.66;4912059;29;20110;-82
2022/06/18 01:30:38;;;;;;;15.45;7.18;;;;;;;12.39;76.14;99774.22;4932233;29;20074;-81
2022/06/18 01:33:08;;;;;;;12.85;6.97;;;;;;;12.42;75.66;99775.03;4928203;29;20043;-80
2022/06/18 01:35:42;;;;;;;9.68;6.82;;;;;;;12.47;75.84;99774.94;4897649;29;20051;-81
2022/06/18 01:38:13;;;;;;;11.57;7.57;;;;;;;12.51;75.66;99779.22;4902578;29;20084;-80
2022/06/18 01:44:51;;;;;;;11.07;6.70;;;;;;;12.60;75.96;99780.81;4927066;29;20412;-79
2022/06/18 01:47:29;;;;;;;13.60;7.22;;;;;;;12.54;75.82;99762.66;4928742;29;20051;-83
2022/06/18 01:50:03;;;;;;;11.32;6.85;;;;;;;12.24;75.75;99692.72;4927808;29;20043;-83
2022/06/18 01:52:35;;;;;;;14.45;5.93;;;;;;;12.75;75.74;99779.69;4916579;29;20780;-80
2022/06/18 01:55:12;;;;;;;12.40;6.57;;;;;;;12.82;75.85;99783.91;4927306;29;20047;-81
2022/06/18 01:57:48;;;;;;;12.82;6.97;;;;;;;12.83;75.54;99775.19;4916661;29;20044;-79
2022/06/18 02:00:21;;;;;;;10.65;6.38;;;;;;;12.85;75.59;99770.81;4923537;29;20044;-83
2022/06/18 02:02:54;;;;;;;10.38;6.30;;;;;;;12.79;75.42;99750.91;4927241;29;20435;-81
2022/06/18 02:05:23;;;;;;;11.00;7.13;;;;;;;12.77;75.54;99743.97;4932053;29;20587;-82
2022/06/18 02:07:50;;;;;;;14.77;7.30;;;;;;;12.99;75.49;99765.31;4926836;29;20047;-78
2022/06/18 02:10:21;;;;;;;12.65;6.95;;;;;;;13.07;75.48;99775.63;4913460;29;20058;-80
2022/06/18 02:12:50;;;;;;;13.90;7.22;;;;;;;13.08;75.10;99772.97;4929639;29;20050;-80
2022/06/18 02:15:41;;;;;;;14.45;7.57;;;;;;;13.18;75.11;99781.47;4906260;29;20119;-80
2022/06/18 02:18:11;;;;;;;12.13;7.50;;;;;;;13.22;75.08;99790.97;4930511;29;20043;-79
2022/06/18 02:20:48;;;;;;;12.95;7.90;;;;;;;13.26;74.85;99790.03;4892880;29;20044;-80
2022/06/18 02:23:18;;;;;;;14.30;7.47;;;;;;;13.21;74.84;99776.19;4928640;29;20047;-81
2022/06/18 02:25:44;;;;;;;14.70;8.25;;;;;;;13.37;74.88;99805.50;4928203;29;20043;-80
2022/06/18 02:28:18;;;;;;;16.10;8.02;;;;;;;13.20;74.54;99763.19;4910226;29;20595;-81
2022/06/18 02:30:44;;;;;;;11.75;7.38;;;;;;;13.48;74.82;99801.81;4927956;29;20051;-81
2022/06/18 02:33:22;;;;;;;13.07;7.78;;;;;;;13.59;74.56;99797.25;4927545;29;20098;-82
2022/06/18 02:35:48;;;;;;;12.15;7.68;;;;;;;13.66;74.57;99804.06;4930047;29;20063;-80
2022/06/18 02:38:21;;;;;;;12.43;6.90;;;;;;;13.51;74.56;99770.38;4915430;29;20051;-81
2022/06/18 02:40:47;;;;;;;11.50;7.07;;;;;;;13.73;74.51;99796.94;4923582;29;20074;-81
2022/06/18 02:43:18;;;;;;;11.82;7.40;;;;;;;13.78;74.22;99775.91;4927742;29;20083;-79
2022/06/18 02:45:51;;;;;;;11.05;6.88;;;;;;;13.93;74.11;99774.72;4899775;29;20084;-81
2022/06/18 02:48:17;;;;;;;11.50;7.50;;;;;;;14.06;74.08;99776.13;4904877;29;20044;-82
2022/06/18 02:50:44;;;;;;;12.93;7.00;;;;;;;14.21;73.88;99780.16;4926868;29;20043;-80
2022/06/18 02:53:12;;;;;;;11.85;7.97;;;;;;;14.38;73.67;99782.34;4929007;29;20067;-81
2022/06/18 02:55:49;;;;;;;13.15;7.30;;;;;;;14.50;73.63;99782.94;4909570;29;20043;-80
2022/06/18 02:58:23;;;;;;;12.85;7.18;;;;;;;14.64;73.42;99780.84;4931113;29;20038;-78
2022/06/18 03:00:53;;;;;;;8.05;6.45;;;;;;;14.76;73.24;99783.16;4927342;29;20055;-80
2022/06/18 03:03:27;;;;;;;14.07;6.53;;;;;;;14.81;73.03;99758.59;4929313;29;20035;-82
2022/06/18 03:05:54;;;;;;;12.20;5.95;;;;;;;14.95;72.77;99776.56;4915057;29;20077;-80
2022/06/18 03:08:23;;;;;;;9.95;5.60;;;;;;;15.10;72.33;99778.75;4927953;29;20035;-79
2022/06/18 03:13:37;;;;;;;5.47;4.60;;;;;;;15.40;72.10;99772.69;4927040;29;20047;-82
2022/06/18 03:16:06;;;;;;;7.32;4.97;;;;;;;15.63;71.96;99774.63;4899884;29;20044;-81
2022/06/18 03:18:35;;;;;;;7.28;4.60;;;;;;;15.71;71.26;99750.78;4927399;29;20470;-78
2022/06/18 03:21:39;;;;;;;4.95;4.00;;;;;;;15.93;70.88;99761.50;4930990;29;20508;-82
2022/06/18 03:24:06;;;;;;;6.28;3.50;;;;;;;16.02;70.43;99750.72;4927918;29;20040;-82
2022/06/18 03:26:35;;;;;;;5.50;4.45;;;;;;;16.03;70.04;99735.81;4911807;29;20114;-83
2022/06/18 03:29:05;;;;;;;10.13;3.70;;;;;;;16.34;69.28;99767.16;4932914;29;20075;-80
2022/06/18 03:31:32;;;;;;;5.22;3.40;;;;;;;16.16;69.00;99718.78;4926052;29;20051;-80
2022/06/18 03:33:58;;;;;;;5.10;3.40;;;;;;;16.50;68.29;99746.50;4925246;29;20039;-81
2022/06/18 03:36:25;;;;;;;4.35;3.13;;;;;;;16.63;68.35;99746.09;4927634;29;20099;-83
2022/06/18 03:38:52;;;;;;;3.70;2.70;;;;;;;16.92;67.23;99767.84;4912406;29;20099;-78
2022/06/18 03:41:20;;;;;;;3.80;2.80;;;;;;;16.91;66.78;99745.09;4927479;29;20059;-80
2022/06/18 03:43:46;;;;;;;3.72;2.42;;;;;;;17.15;66.63;99754.75;4912443;29;20051;-80
2022/06/18 03:46:16;;;;;;;5.07;2.58;;;;;;;17.27;65.85;99745.53;4925129;29;20127;-78
2022/06/18 03:48:52;;;;;;;4.78;2.17;;;;;;;17.53;65.21;99767.38;4918952;29;20044;-80
2022/06/18 03:51:23;;;;;;;2.42;2.00;;;;;;;17.48;63.90;99750.06;4915264;29;20050;-81
2022/06/18 03:53:50;;;;;;;2.20;1.88;;;;;;;17.43;63.69;99737.94;4925154;29;20530;-80
2022/06/18 03:56:20;;;;;;;2.78;1.90;;;;;;;17.74;63.25;99749.91;4914156;29;20050;-83
2022/06/18 03:58:48;;;;;;;3.15;2.00;;;;;;;17.76;62.72;99732.25;4927892;29;20032;-81
2022/06/18 04:01:19;;;;;;;2.00;1.70;;;;;;;18.06;61.91;99760.94;4927792;29;20048;-80
2022/06/18 04:03:46;;;;;;;2.88;1.83;;;;;;;18.13;61.28;99737.84;4922440;29;20040;-82
2022/06/18 04:06:21;;;;;;;2.00;1.77;;;;;;;18.38;61.08;99751.78;4926827;29;20047;-82
2022/06/18 04:08:48;;;;;;;3.83;2.00;;;;;;;18.52;60.31;99752.06;4941704;29;20043;-82
2022/06/18 04:11:19;;;;;;;3.20;2.33;;;;;;;18.73;59.44;99763.47;4927491;29;20048;-82
2022/06/18 04:13:45;;;;;;;4.65;2.05;;;;;;;18.81;58.99;99765.75;4926938;29;20044;-81
2022/06/18 04:16:50;;;;;;;3.17;1.67;;;;;;;18.93;58.41;99753.81;4926426;29;20235;-83
2022/06/18 04:19:19;;;;;;;2.80;1.98;;;;;;;19.08;57.64;99766.34;4908735;29;20048;-83
2022/06/18 04:21:46;;;;;;;4.18;1.70;;;;;;;19.16;57.14;99773.91;4897291;29;20082;-80
2022/06/18 04:24:11;;;;;;;2.50;1.80;;;;;;;19.15;56.57;99761.63;4932172;29;20036;-80
2022/06/18 04:26:43;;;;;;;2.97;1.83;;;;;;;19.15;56.51;99753.72;4930295;29;20039;-80
2022/06/18 04:29:09;;;;;;;2.58;1.88;;;;;;;19.27;55.89;99753.19;4925936;29;20031;-80
2022/06/18 04:31:35;;;;;;;3.35;1.75;;;;;;;19.35;55.39;99739.63;4896631;29;20130;-81
2022/06/18 04:34:01;;;;;;;3.05;1.70;;;;;;;19.62;55.06;99764.78;4930273;29;20071;-81
2022/06/18 04:36:56;;;;;;;2.63;1.95;;;;;;;19.63;54.38;99754.19;4907639;29;20604;-80
2022/06/18 04:39:33;;;;;;;2.97;1.80;;;;;;;19.75;53.99;99757.16;4926842;29;20047;-81
2022/06/18 04:42:20;;;;;;;3.63;1.85;;;;;;;19.85;53.24;99737.31;4929575;29;20047;-79
2022/06/18 04:44:47;;;;;;;2.17;1.60;;;;;;;20.06;52.93;99743.34;4915317;29;20047;-80
2022/06/18 04:47:18;;;;;;;2.85;2.03;;;;;;;20.32;52.54;99764.97;4912977;29;20067;-83
2022/06/18 04:49:45;;;;;;;2.42;1.65;;;;;;;20.37;52.19;99747.13;4926203;29;20044;-82
2022/06/18 04:52:12;;;;;;;6.38;1.70;;;;;;;20.52;51.92;99740.22;4930868;29;20047;-80
2022/06/18 04:54:41;;;;;;;3.50;1.98;;;;;;;20.77;51.17;99760.09;4939183;29;20071;-78
2022/06/18 04:57:07;;;;;;;5.50;1.73;;;;;;;20.88;50.94;99775.41;4928723;29;20091;-79
2022/06/18 04:59:35;;;;;;;2.72;1.50;;;;;;;20.91;50.34;99762.88;4925872;29;20053;-82
2022/06/18 05:02:12;;;;;;;2.95;1.77;;;;;;;21.06;50.11;99763.00;4939749;29;20048;-81
2022/06/18 05:04:53;;;;;;;1.85;1.60;;;;;;;21.19;49.13;99763.19;4919570;29;20036;-82
2022/06/18 05:07:46;;;;;;;1.92;1.67;;;;;;;21.15;48.84;99743.13;4925339;29;20060;-83
2022/06/18 05:10:38;;;;;;;3.97;1.42;;;;;;;21.36;48.44;99755.19;4909770;29;20420;-82
2022/06/18 05:13:14;;;;;;;2.22;1.33;;;;;;;21.51;48.18;99757.97;4909520;29;21008;-80
2022/06/18 05:15:48;;;;;;;4.27;1.60;;;;;;;21.50;47.98;99759.75;4931234;29;20051;-80
2022/06/18 05:18:17;;;;;;;3.47;1.45;;;;;;;21.62;47.39;99766.19;4929346;29;20036;-82
2022/06/18 05:20:51;;;;;;;2.85;1.40;;;;;;;21.73;46.86;99767.38;4941779;29;20074;-82
2022/06/18 05:23:20;;;;;;;7.63;1.70;;;;;;;21.88;46.75;99768.28;4930807;29;20130;-79
2022/06/18 05:25:47;;;;;;;4.40;1.55;;;;;;;21.96;45.93;99772.22;4939668;29;20051;-82
2022/06/18 05:28:14;;;;;;;3.75;1.63;;;;;;;21.85;45.48;99742.00;4925738;29;20130;-80
2022/06/18 05:30:41;;;;;;;1.95;1.60;;;;;;;21.97;45.70;99775.72;4925599;29;20050;-80
2022/06/18 05:33:08;;;;;;;2.63;1.73;;;;;;;22.09;45.17;99768.88;4931757;29;20047;-78
2022/06/18 05:35:42;;;;;;;2.58;1.38;;;;;;;22.18;44.76;99751.59;4918599;29;20127;-82
2022/06/18 05:38:19;;;;;;;2.92;1.50;;;;;;;22.27;44.74;99759.84;4920046;29;20039;-81
2022/06/18 05:40:45;;;;;;;2.85;1.50;;;;;;;22.41;43.96;99774.97;4928362;29;20048;-80
2022/06/18 05:43:13;;;;;;;1.73;1.38;;;;;;;22.37;43.87;99769.94;4914688;29;20063;-81
2022/06/18 05:45:41;;;;;;;1.58;1.40;;;;;;;22.29;43.81;99764.22;4926580;29;20050;-82
2022/06/18 05:48:09;;;;;;;2.88;1.10;;;;;;;22.34;43.42;99767.47;4916994;29;20036;-80
2022/06/18 05:50:36;;;;;;;2.75;1.17;;;;;;;22.42;43.20;99754.59;4914236;29;20137;-85
2022/06/18 05:53:01;;;;;;;2.45;1.10;;;;;;;23.15;43.19;99767.03;4922601;29;20142;-80
2022/06/18 05:55:48;;;;;;;1.60;1.20;;;;;;;24.93;41.78;99764.47;4922381;29;20431;-82
2022/06/18 05:58:23;;;;;;;1.70;0.90;;;;;;;27.39;38.14;99757.88;4928160;29;20048;-83
2022/06/18 06:00:52;;;;;;;1.73;1.00;;;;;;;29.44;35.57;99752.38;4920706;29;20054;-80
2022/06/18 06:03:18;;;;;;;2.83;1.30;;;;;;;31.00;32.96;99706.84;4897444;29;20466;-81
2022/06/18 06:05:45;;;;;;;2.28;1.23;;;;;;;32.65;30.76;99716.50;4919436;29;20436;-83
2022/06/18 06:08:11;;;;;;;2.17;1.25;;;;;;;34.05;29.27;99710.75;4925906;29;20047;-82
2022/06/18 06:13:25;;;;;;;1.33;1.10;;;;;;;36.94;25.19;99715.56;4915685;29;20051;-82
2022/06/18 06:15:55;;;;;;;2.75;1.10;;;;;;;38.10;24.04;99746.53;4929693;29;20114;-85
2022/06/18 06:18:23;;;;;;;5.07;1.40;;;;;;;39.00;22.56;99744.03;4937921;29;20044;-83
2022/06/18 06:20:52;;;;;;;1.60;1.17;;;;;;;39.41;21.19;99666.19;4912412;29;20511;-83
2022/06/18 06:23:26;;;;;;;1.83;1.23;;;;;;;39.79;20.26;99645.72;4928640;29;20466;-82
2022/06/18 06:26:13;;;;;;;2.75;1.20;;;;;;;40.10;19.85;99636.06;4930210;29;20111;-80
2022/06/18 06:28:57;;;;;;;2.60;1.20;;;;;;;41.01;18.43;99676.31;4909016;29;20130;-81
2022/06/18 06:31:29;;;;;;;1.90;1.20;;;;;;;41.25;17.57;99633.81;4913917;29;20127;-83
2022/06/18 06:33:55;;;;;;;2.25;1.00;;;;;;;42.25;16.73;99711.41;4914881;29;20566;-80
2022/06/18 06:36:21;;;;;;;4.53;1.08;;;;;;;42.96;16.26;99715.72;4929674;29;20047;-85
2022/06/18 06:38:47;;;;;;;2.30;1.10;;;;;;;43.76;15.35;99709.19;4931317;29;20040;-80
2022/06/18 06:41:19;;;;;;;5.32;3.67;;;;;;;44.58;14.38;99750.59;4916683;29;20076;-80
2022/06/18 06:43:56;;;;;;;5.18;4.65;;;;;;;44.92;13.86;99715.13;4932054;29;20070;-80
2022/06/18 06:46:30;;;;;;;2.60;2.40;;;;;;;44.99;13.61;99739.72;4929286;29;20156;-82
2022/06/18 06:49:02;;;;;;;10.48;7.90;;;;;;;45.17;13.11;99743.34;4937571;29;20043;-84
2022/06/18 06:51:35;;;;;;;5.20;4.38;;;;;;;45.15;13.20;99742.75;4936254;29;20043;-83
2022/06/18 06:54:14;;;;;;;8.40;6.15;;;;;;;45.42;12.68;99718.31;4937471;29;20047;-82
2022/06/18 06:59:33;;;;;;;5.15;3.50;;;;;;;45.90;11.80;99720.78;4927514;29;20397;-82
2022/06/18 07:02:21;;;;;;;5.38;4.88;;;;;;;45.65;12.42;99675.34;4932033;29;20047;-82
2022/06/18 07:04:47;;;;;;;5.57;3.90;;;;;;;46.29;11.54;99677.72;4929098;29;20082;-84
2022/06/18 07:07:39;;;;;;;5.18;2.90;;;;;;;46.92;11.47;99751.75;4917525;29;20071;-82
2022/06/18 07:10:12;;;;;;;5.25;4.82;;;;;;;47.44;10.99;99691.75;4925816;29;20079;-81
2022/06/18 07:12:44;;;;;;;4.38;2.83;;;;;;;47.90;10.72;99680.28;4911121;29;20050;-85
2022/06/18 07:15:14;;;;;;;5.93;3.15;;;;;;;47.63;10.70;99739.03;4929641;29;20078;-82
2022/06/18 07:17:40;;;;;;;4.68;4.10;;;;;;;48.03;10.62;99717.63;4912041;29;20039;-85
2022/06/18 07:20:39;;;;;;;2.88;2.42;;;;;;;49.03;9.68;99737.19;4927819;29;20048;-81
2022/06/18 07:23:26;;;;;;;2.28;2.08;;;;;;;48.33;9.53;99680.34;4939673;29;20356;-83
2022/06/18 07:26:55;;;;;;;;;;;;;;;;;;;;;
2022/06/18 07:30:12;;;;;;;2.10;1.92;;;;;;;48.70;9.68;99660.09;4889881;29;20126;-81
2022/06/18 07:32:47;;;;;;;3.88;2.00;;;;;;;49.40;9.52;99691.97;4928826;29;20051;-82
2022/06/18 07:35:40;;;;;;;4.45;2.13;;;;;;;49.29;9.19;99677.34;4927172;29;20066;-84
2022/06/18 07:38:06;;;;;;;3.90;3.00;;;;;;;49.85;9.08;99714.44;4929965;29;20039;-84
2022/06/18 07:40:50;;;;;;;2.05;1.90;;;;;;;49.07;8.62;99657.44;4929788;29;20039;-81
2022/06/18 07:47:20;;;;;;;8.20;7.50;;;;;;;48.61;9.54;99683.75;4921373;29;20050;-82
2022/06/18 07:49:46;;;;;;;3.47;2.95;;;;;;;49.35;8.54;99693.91;4948547;29;20123;-81
2022/06/18 07:52:14;;;;;;;9.05;7.43;;;;;;;50.26;8.57;99708.00;4926762;29;20052;-83
2022/06/18 07:54:42;;;;;;;4.60;4.28;;;;;;;50.67;8.01;99689.59;4912779;29;20039;-82
2022/06/18 07:57:09;;;;;;;7.28;5.90;;;;;;;50.07;8.34;99721.59;4926530;29;20075;-80
2022/06/18 07:59:38;;;;;;;4.68;1.70;;;;;;;48.78;8.75;99713.06;4926242;29;20130;-84
2022/06/18 08:02:21;;;;;;;5.55;5.00;;;;;;;47.49;9.16;99660.66;4923844;29;20064;-83
2022/06/18 08:05:31;;;;;;;2.92;2.33;;;;;;;47.82;9.36;99719.34;4927017;29;20047;-82
2022/06/18 08:07:58;;;;;;;9.43;4.55;;;;;;;48.37;8.98;99710.97;4898415;29;20036;-85
2022/06/18 08:10:27;;;;;;;8.02;7.25;;;;;;;48.74;8.69;99689.91;4936915;29;20107;-83
2022/06/18 08:12:56;;;;;;;5.10;3.08;;;;;;;47.02;9.38;99673.13;4914982;29;20044;-82
2022/06/18 08:15:28;;;;;;;1.95;1.42;;;;;;;44.74;10.29;99674.13;4927949;29;20063;-82
2022/06/18 08:18:14;;;;;;;1.40;1.30;;;;;;;43.74;10.68;99629.16;4910071;29;20478;-85
2022/06/18 08:20:44;;;;;;;1.55;1.20;;;;;;;44.51;10.57;99692.31;4929910;29;20067;-82
2022/06/18 08:23:11;;;;;;;4.82;1.33;;;;;;;42.19;11.90;99665.00;4936285;29;20039;-80
2022/06/18 08:25:40;;;;;;;2.38;1.15;;;;;;;43.46;11.48;99693.59;4910010;29;20044;-82
2022/06/18 08:28:17;;;;;;;2.88;1.40;;;;;;;42.49;11.87;99636.97;4925761;29;20041;-82
2022/06/18 08:31:28;;;;;;;3.78;1.27;;;;;;;40.14;12.46;99607.34;4912094;29;20043;-82
2022/06/18 08:34:13;;;;;;;6.03;2.85;;;;;;;38.46;13.42;99702.09;4926085;29;20135;-82
2022/06/18 08:36:43;;;;;;;6.10;2.33;;;;;;;37.20;14.49;99700.69;4926460;29;20040;-82
2022/06/18 08:39:10;;;;;;;7.72;3.95;;;;;;;36.39;15.37;99698.69;4927908;29;20605;-83
2022/06/18 08:42:03;;;;;;;7.68;3.40;;;;;;;35.63;15.96;99702.19;4905177;29;20039;-81
2022/06/18 08:45:15;;;;;;;6.97;2.70;;;;;;;34.66;16.81;99699.53;4909230;29;20043;-82
2022/06/18 08:48:23;;;;;;;1.77;1.30;;;;;;;33.69;17.73;99716.44;4929454;29;20062;-80
2022/06/18 08:51:36;;;;;;;5.43;2.08;;;;;;;35.64;16.89;99704.69;4924705;29;20055;-82
2022/06/18 08:54:08;;;;;;;2.55;1.58;;;;;;;35.52;17.09;99695.34;4929509;29;20463;-82
2022/06/18 08:56:43;;;;;;;3.15;1.33;;;;;;;34.49;17.47;99658.25;4929806;29;20048;-82
2022/06/18 08:59:42;;;;;;;8.45;6.15;;;;;;;33.70;18.35;99711.88;4925482;29;20139;-84
2022/06/18 09:02:36;;;;;;;2.22;1.38;;;;;;;32.30;19.45;99710.22;4906466;29;20051;-80
2022/06/18 09:05:35;;;;;;;6.28;3.92;;;;;;;31.35;20.33;99716.00;4924781;29;20062;-84
2022/06/18 09:08:39;;;;;;;3.03;2.28;;;;;;;30.68;20.95;99716.97;4908898;29;20067;-82
2022/06/18 09:11:43;;;;;;;5.38;4.43;;;;;;;29.94;21.70;99721.13;4926758;29;20067;-84
2022/06/18 09:14:32;;;;;;;5.30;4.80;;;;;;;29.66;22.24;99723.66;4925179;29;20510;-83
2022/06/18 09:17:13;;;;;;;6.78;4.25;;;;;;;29.42;22.59;99708.81;4893049;29;20074;-82
2022/06/18 09:19:45;;;;;;;3.80;1.92;;;;;;;29.82;21.85;99564.94;4926150;29;20130;-82
2022/06/18 09:22:22;;;;;;;2.50;1.88;;;;;;;31.66;20.97;99567.81;4913512;29;20044;-82
2022/06/18 09:25:02;;;;;;;3.05;2.75;;;;;;;33.60;19.74;99658.97;4924911;29;20138;-81
2022/06/18 09:28:26;;;;;;;3.20;1.88;;;;;;;33.70;19.63;99704.66;4926495;29;20072;-82
2022/06/18 09:31:05;;;;;;;5.70;1.95;;;;;;;31.95;20.46;99655.44;4893475;29;20048;-79
2022/06/18 09:33:44;;;;;;;5.75;3.13;;;;;;;31.07;20.86;99617.44;4933398;29;20191;-79
2022/06/18 09:36:23;;;;;;;7.47;3.17;;;;;;;30.79;21.94;99668.47;4910170;29;20485;-81
2022/06/18 09:39:14;;;;;;;6.25;3.92;;;;;;;30.46;22.42;99702.03;4895717;29;20090;-81
2022/06/18 09:42:04;;;;;;;3.45;3.00;;;;;;;29.93;22.83;99696.13;4926807;29;20047;-82
2022/06/18 09:44:54;;;;;;;4.45;2.90;;;;;;;30.53;22.99;99636.06;4932175;29;20058;-80
2022/06/18 09:47:32;;;;;;;3.58;2.47;;;;;;;33.20;20.97;99695.59;4930439;29;20050;-81
2022/06/18 09:50:02;;;;;;;2.95;1.85;;;;;;;33.62;20.35;99691.13;4937910;29;20063;-82
2022/06/18 09:52:39;;;;;;;3.30;2.92;;;;;;;33.11;20.22;99692.00;4922312;29;20054;-79
2022/06/18 09:55:15;;;;;;;5.30;3.22;;;;;;;32.43;21.07;99683.72;4906638;29;20051;-80
2022/06/18 09:57:49;;;;;;;5.53;3.45;;;;;;;31.64;21.32;99683.56;4934782;29;20054;-80
2022/06/18 10:00:20;;;;;;;5.45;4.05;;;;;;;30.62;21.93;99680.81;4934830;29;20044;-82
2022/06/18 10:06:52;;;;;;;12.50;11.18;;;;;;;29.52;22.32;99641.81;4923155;29;20064;-84
2022/06/18 10:08:57;;;;;;;12.90;8.55;;;;;;;29.54;23.71;99680.91;4925781;29;20062;-83
2022/06/18 10:11:49;;;;;;;14.95;10.60;;;;;;;31.73;22.07;99692.56;4929372;29;20138;-82
2022/06/18 10:14:22;;;;;;;4.10;1.58;;;;;;;33.51;20.12;99648.34;4932186;29;20657;-81
2022/06/18 10:17:16;;;;;;;4.03;1.75;;;;;;;34.24;18.96;99649.31;4913093;29;20043;-82
2022/06/18 10:20:08;;;;;;;3.88;1.65;;;;;;;32.79;19.77;99625.34;4932603;29;20047;-80
2022/06/18 10:23:13;;;;;;;4.25;1.42;;;;;;;33.05;19.94;99693.50;4918743;29;20036;-84
2022/06/18 10:25:43;;;;;;;2.17;1.60;;;;;;;33.28;19.31;99657.84;4934781;29;20051;-82
2022/06/18 10:28:37;;;;;;;2.00;1.50;;;;;;;32.39;20.21;99682.34;4932571;29;20040;-82
2022/06/18 10:31:29;;;;;;;3.85;1.42;;;;;;;31.09;21.16;99687.13;4914777;29;20070;-82
2022/06/18 10:34:18;;;;;;;5.63;1.77;;;;;;;29.84;22.35;99676.38;4900153;29;20043;-83
2022/06/18 10:37:09;;;;;;;6.57;1.73;;;;;;;28.82;22.77;99694.34;4931146;29;20057;-82
2022/06/18 10:39:47;;;;;;;4.80;1.90;;;;;;;28.33;23.79;99691.38;4931548;29;20047;-84
2022/06/18 10:42:37;;;;;;;5.32;1.98;;;;;;;28.30;23.95;99690.81;4917104;29;20519;-84
2022/06/18 10:45:11;;;;;;;7.75;3.30;;;;;;;28.32;24.07;99662.94;4929317;29;20043;-80
2022/06/18 10:47:42;;;;;;;6.65;4.45;;;;;;;28.41;23.96;99666.63;4926005;29;20057;-83
2022/06/18 10:50:15;;;;;;;2.78;1.60;;;;;;;28.68;24.15;99686.66;4928931;29;20134;-81
2022/06/18 10:52:42;;;;;;;2.80;1.77;;;;;;;28.66;23.69;99700.16;4932469;29;20049;-85
2022/06/18 10:55:15;;;;;;;6.13;2.28;;;;;;;28.74;23.84;99694.19;4932305;29;20051;-82
2022/06/18 10:57:43;;;;;;;3.75;1.55;;;;;;;28.80;23.88;99695.47;4934055;29;20044;-81
2022/06/18 11:00:28;;;;;;;3.72;1.92;;;;;;;28.74;24.01;99686.16;4920576;29;20107;-83
2022/06/18 11:03:01;;;;;;;3.97;2.08;;;;;;;28.35;24.36;99683.25;4937350;29;21096;-82
2022/06/18 11:05:31;;;;;;;3.50;1.73;;;;;;;27.92;24.69;99680.50;4935478;29;20134;-81
2022/06/18 11:08:01;;;;;;;3.13;1.40;;;;;;;27.32;24.69;99682.75;4917374;29;20048;-80
2022/06/18 11:10:43;;;;;;;2.90;1.60;;;;;;;26.73;25.78;99684.69;4927424;29;20040;-83
2022/06/18 11:13:42;;;;;;;3.97;1.35;;;;;;;26.24;26.60;99686.69;4915011;29;20106;-82
2022/06/18 11:16:26;;;;;;;2.08;1.30;;;;;;;25.94;26.79;99688.00;4916706;29;20059;-84
2022/06/18 11:18:57;;;;;;;5.20;1.60;;;;;;;25.77;26.92;99687.47;4928467;29;20480;-83
2022/06/18 11:21:24;;;;;;;;;;;;;;;25.57;26.91;99683.63;4928835;29;20043;-82
2022/06/18 11:24:03;;;;;;;4.00;1.50;;;;;;;25.36;27.38;99670.91;4900445;29;19918;-84
2022/06/18 11:26:30;;;;;;;3.17;1.75;;;;;;;25.75;27.39;99694.72;4929959;29;20102;-83
2022/06/18 11:29:04;;;;;;;3.55;2.17;;;;;;;25.85;27.44;99674.44;4928054;29;20043;-82
2022/06/18 11:31:42;;;;;;;3.83;1.58;;;;;;;25.83;27.56;99649.72;4912476;29;20050;-82
2022/06/18 11:34:21;;;;;;;3.10;2.00;;;;;;;26.04;27.76;99654.38;4928659;29;20397;-82
2022/06/18 11:36:51;;;;;;;5.43;1.67;;;;;;;26.08;28.22;99629.19;4924477;29;20826;-83
2022/06/18 11:39:24;;;;;;;3.22;1.95;;;;;;;26.16;27.77;99608.13;4913949;29;20040;-81
2022/06/18 11:41:54;;;;;;;3.03;1.70;;;;;;;26.84;27.21;99671.41;4943588;29;20060;-81
2022/06/18 11:44:43;;;;;;;2.70;2.38;;;;;;;26.91;27.25;99671.75;4930781;29;20048;-84
2022/06/18 11:47:20;;;;;;;4.00;2.00;;;;;;;26.70;27.45;99666.28;4929401;29;20500;-81
2022/06/18 11:50:07;;;;;;;2.28;2.03;;;;;;;26.49;27.68;99671.47;4916372;29;20094;-81
2022/06/18 11:52:54;;;;;;;2.35;1.80;;;;;;;26.27;28.36;99665.13;4927291;29;20054;-82
2022/06/18 11:55:36;;;;;;;4.05;3.00;;;;;;;26.08;28.48;99652.31;4926648;29;20043;-82
2022/06/18 11:58:18;;;;;;;3.47;1.73;;;;;;;25.90;28.63;99641.25;4928522;29;20103;-81
2022/06/18 12:00:59;;;;;;;3.15;2.30;;;;;;;26.02;28.43;99653.63;4924426;29;20130;-80
2022/06/18 12:03:39;;;;;;;10.53;8.53;;;;;;;25.78;28.68;99600.41;4913549;29;20120;-82
2022/06/18 12:06:17;;;;;;;8.18;6.80;;;;;;;26.26;28.59;99637.59;4913312;29;20566;-83
2022/06/18 12:08:44;;;;;;;13.48;9.73;;;;;;;26.69;28.10;99649.41;4919565;29;20086;-82
2022/06/18 12:11:49;;;;;;;8.68;6.55;;;;;;;26.80;27.88;99642.38;4929340;29;20529;-82
2022/06/18 12:14:35;;;;;;;5.88;3.55;;;;;;;26.62;28.44;99640.19;4926639;29;20545;-82
2022/06/18 12:17:07;;;;;;;3.38;2.47;;;;;;;26.42;28.63;99647.94;4927162;29;20039;-82
2022/06/18 12:19:52;;;;;;;2.70;1.73;;;;;;;26.28;28.43;99637.50;4916461;29;20407;-83
2022/06/18 12:22:27;;;;;;;4.85;3.65;;;;;;;26.26;28.79;99634.09;4926734;29;20036;-85
2022/06/18 12:25:15;;;;;;;8.32;6.65;;;;;;;26.12;28.94;99627.16;4907631;29;20109;-83
2022/06/18 12:27:52;;;;;;;6.25;4.55;;;;;;;25.66;29.05;99568.38;4927475;29;20134;-80
2022/06/18 12:30:26;;;;;;;10.23;7.78;;;;;;;25.69;29.29;99564.66;4934521;29;20075;-80
2022/06/18 12:33:06;;;;;;;29.02;22.58;;;;;;;25.32;28.89;99492.81;4907626;29;20456;-81
2022/06/18 12:35:45;;;;;;;3.22;1.65;;;;;;;26.15;29.11;99621.59;4915653;29;20059;-83
2022/06/18 12:38:21;;;;;;;4.97;2.85;;;;;;;26.15;28.94;99622.44;4943579;29;20107;-82